• Join FlightAware (Why Join?)
  • Login
  • US Flag 
05:14AM EDT


 

Airport Tracker/Info


-or-


 

Live Flight TrackerFlight Track Log ✈ DAL1981 ✈ 01-Jul-2013 ✈ KSMF - KMSP

Flight Track Log - Related Links

Times and Time Zones

All times are in EDT time to prevent confusion due to time zone crossing. See the DAL1981 flight status page for this flight to view local times or setup timezone preferences in your user account.

Time Position Orientation Groundspeed Altitude Reporting Facility
EDT Latitude Longitude Course Direction KTS MPH feet Rate Location/Type
03:54PM 38.7167 -121.5833 78° East 140 161 1,400  Level Northern Cal TRACON
03:55PM 38.7500 -121.5500 38° Northeast 204 235 2,000 1,020 Climbing Northern Cal TRACON
03:56PM 38.7667 -121.4500 78° East 271 312 3,400 1,800 Climbing Northern Cal TRACON
03:57PM 38.4928 -121.2841 80° East  Level FlightAware Approximate
03:57PM 38.7667 -121.3667 90° East 291 335 5,700  Level Northern Cal TRACON
03:58PM 38.5262 -121.1357 76° East  Level FlightAware Approximate
03:58PM 38.7667 -121.2500 90° East 301 346 7,600  Level Northern Cal TRACON
03:59PM 38.5553 -120.9849 78° East  Level FlightAware Approximate
03:59PM 38.7667 -121.1500 90° East 309 356 10,000  Level Northern Cal TRACON
04:00PM 38.5807 -120.8330 78° East  Level FlightAware Approximate
04:00PM 38.7572 -121.0783 100° East 307 353 10,700  Level Oakland Center
04:01PM 38.7514 -120.9514 93° East 336 387 11,700 1,560 Climbing Oakland Center
04:02PM 38.7439 -120.7869 93° East 369 425 13,900 1,920 Climbing Oakland Center
04:03PM 38.7381 -120.6478 93° East 381 438 15,700 1,560 Climbing Oakland Center
04:04PM 38.7319 -120.5042 93° East 395 455 17,100 1,380 Climbing Oakland Center
04:05PM 38.7256 -120.3547 93° East 418 481 18,600 1,500 Climbing Oakland Center
04:06PM 38.7250 -120.2025 90° East 433 498 20,200 1,320 Climbing Oakland Center
04:07PM 38.8106 -120.0858 47° Northeast 459 528 21,400 1,260 Climbing Oakland Center
04:08PM 38.9075 -119.9772 41° Northeast 465 535 22,900 1,260 Climbing Oakland Center
04:09PM 39.0067 -119.8656 41° Northeast 468 539 24,100 960 Climbing Oakland Center
04:10PM 39.0894 -119.7339 51° Northeast 478 550 24,900 840 Climbing Oakland Center
04:11PM 39.1675 -119.5944 54° Northeast 480 552 25,900 960 Climbing Oakland Center
04:12PM 39.2619 -119.4267 54° Northeast 482 555 26,900 840 Climbing Oakland Center
04:13PM 39.3428 -119.2836 54° Northeast 489 563 27,700 960 Climbing Oakland Center
04:14PM 39.4225 -119.1408 54° Northeast 487 560 28,900 960 Climbing Oakland Center
04:15PM 39.5069 -119.0033 51° Northeast 485 558 29,700 720 Climbing Oakland Center
04:16PM 39.6297 -118.9139 29° Northeast 501 577 30,400 780 Climbing Oakland Center
04:17PM 39.7522 -118.8297 28° Northeast 495 570 31,300 900 Climbing Oakland Center
04:18PM 39.8750 -118.7464 28° Northeast 494 568 32,300 960 Climbing Oakland Center
04:19PM 39.9956 -118.6656 27° Northeast 488 562 33,300 780 Climbing Oakland Center
04:20PM 40.1025 -118.5639 36° Northeast 477 549 34,000 660 Climbing Oakland Center
04:21PM 40.1694 -118.4158 59° Northeast 475 547 34,700 420 Climbing Oakland Center
04:23PM 40.2228 -118.2211 70° East 473 544 35,000 120 Climbing Salt Lake Center
04:24PM 40.2583 -118.0925 70° East 469 540 35,000  Level Oakland Center
04:25PM 40.3075 -117.9131 70° East 472 543 35,000  Level Oakland Center
04:26PM 40.3478 -117.7586 71° East 469 540 35,000  Level Oakland Center
04:27PM 40.3961 -117.5786 71° East 468 539 35,000  Level Oakland Center
04:28PM 40.4378 -117.4256 70° East 465 535 35,000  Level Oakland Center
04:29PM 40.4853 -117.2450 71° East 464 534 35,000  Level Salt Lake Center
04:30PM 40.5339 -117.0639 70° East 467 537 35,000  Level Salt Lake Center
04:31PM 40.5764 -116.9058 70° East 470 541 35,000  Level Salt Lake Center
04:32PM 40.6356 -116.7575 62° Northeast 470 541 35,000  Level Salt Lake Center
04:33PM 40.7008 -116.5861 63° Northeast 467 537 35,000  Level Salt Lake Center
04:34PM 40.7572 -116.4394 63° Northeast 467 537 35,000  Level Salt Lake Center
04:35PM 40.8236 -116.2689 63° Northeast 467 537 35,000  Level Salt Lake Center
04:36PM 40.8814 -116.1217 63° Northeast 470 541 35,000  Level Salt Lake Center
04:37PM 40.9378 -115.9733 63° Northeast 469 540 35,000  Level Salt Lake Center
04:38PM 41.0019 -115.8025 63° Northeast 467 537 35,000  Level Salt Lake Center
04:39PM 41.0575 -115.6558 63° Northeast 465 535 35,000  Level Salt Lake Center
04:40PM 41.1208 -115.4850 64° Northeast 464 534 35,000  Level Salt Lake Center
04:41PM 41.1756 -115.3381 64° Northeast 462 532 35,000  Level Salt Lake Center
04:42PM 41.2389 -115.1667 64° Northeast 463 533 35,000  Level Salt Lake Center
04:43PM 41.2925 -115.0211 64° Northeast 461 531 35,000  Level Salt Lake Center
04:44PM 41.3464 -114.8747 64° Northeast 461 531 35,000  Level Salt Lake Center
04:45PM 41.4042 -114.7175 64° Northeast 462 532 35,000  Level Salt Lake Center
04:46PM 41.4606 -114.5631 64° Northeast 463 533 35,000  Level Salt Lake Center
04:47PM 41.5272 -114.3767 64° Northeast 463 533 35,000  Level Salt Lake Center
04:48PM 41.5850 -114.2192 64° Northeast 470 541 35,000  Level Salt Lake Center
04:49PM 41.6425 -114.0608 64° Northeast 474 545 35,100  Climbing Salt Lake Center
04:50PM 41.6978 -113.9031 65° Northeast 470 541 35,000 -60 Descending Salt Lake Center
04:51PM 41.7422 -113.7406 70° East 467 537 35,000  Level Salt Lake Center
04:52PM 41.7811 -113.5769 72° East 464 534 35,000  Level Salt Lake Center
04:53PM 41.8211 -113.4133 72° East 462 532 35,000  Level Salt Lake Center
04:54PM 41.8594 -113.2508 72° East 457 526 35,000  Level Salt Lake Center
04:56PM 41.9075 -113.0528 72° East 464 534 35,000  Level Salt Lake Center
04:57PM 41.9461 -112.8872 73° East 464 534 35,000  Level Salt Lake Center
04:59PM 42.0239 -112.5544 72° East 467 537 35,000  Level Salt Lake Center
05:00PM 42.0619 -112.3886 73° East 465 535 35,000  Level Salt Lake Center
05:01PM 42.1006 -112.2225 73° East 464 534 35,000  Level Salt Lake Center
05:02PM 42.1386 -112.0553 73° East 466 536 35,000  Level Salt Lake Center
05:04PM 42.2217 -111.6903 73° East 462 532 35,000  Level Salt Lake Center
05:05PM 42.2578 -111.5231 74° East 463 533 35,000  Level Salt Lake Center
05:06PM 42.2953 -111.3561 73° East 465 535 35,000  Level Salt Lake Center
05:07PM 42.3325 -111.1892 73° East 465 535 35,000  Level Salt Lake Center
05:08PM 42.3686 -111.0200 74° East 466 536 35,000  Level Salt Lake Center
05:09PM 42.4061 -110.8456 74° East 469 540 35,000  Level Salt Lake Center
05:10PM 42.4472 -110.6553 74° East 471 542 35,000  Level Salt Lake Center
05:11PM 42.4819 -110.4931 74° East 469 540 35,000  Level Salt Lake Center
05:12PM 42.5164 -110.3289 74° East 471 542 35,000  Level Salt Lake Center
05:13PM 42.5558 -110.1394 74° East 469 540 35,000  Level Salt Lake Center
05:14PM 42.5892 -109.9772 74° East 468 539 35,000  Level Salt Lake Center
05:15PM 42.6286 -109.7875 74° East 468 539 35,000  Level Salt Lake Center
05:16PM 42.6619 -109.6244 74° East 468 539 35,000  Level Salt Lake Center
05:17PM 42.7003 -109.4347 75° East 466 536 35,000  Level Salt Lake Center
05:18PM 42.7331 -109.2725 75° East 465 535 35,000  Level Salt Lake Center
05:19PM 42.7650 -109.1108 75° East 464 534 35,000  Level Salt Lake Center
05:20PM 42.8028 -108.9231 75° East 461 531 35,000  Level Salt Lake Center
05:21PM 42.8342 -108.7606 75° East 464 534 35,000  Level Salt Lake Center
05:22PM 42.8708 -108.5722 75° East 461 531 35,000  Level Salt Lake Center
05:23PM 42.9008 -108.4117 76° East 458 527 35,000  Level Salt Lake Center
05:24PM 42.9364 -108.2219 76° East 462 532 35,000  Level Salt Lake Center
05:25PM 42.9675 -108.0597 75° East 462 532 35,000  Level Salt Lake Center
05:26PM 43.0042 -107.8719 75° East 459 528 35,000  Level Salt Lake Center
05:27PM 43.0331 -107.7097 76° East 459 528 35,000  Level Salt Lake Center
05:28PM 43.0675 -107.5217 76° East 457 526 35,000  Level Salt Lake Center
05:30PM 43.0964 -107.3611 76° East 455 524 35,000  Level Salt Lake Center
05:31PM 43.1283 -107.1814 76° East 453 521 35,000  Level Salt Lake Center
05:32PM 43.1581 -107.0217 76° East 453 521 35,000  Level Salt Lake Center
05:33PM 43.1897 -106.8344 77° East 452 520 35,000  Level Salt Lake Center
05:33PM 43.2133 -106.6994 76° East 453 521 35,000  Level Denver Center
05:34PM 43.2414 -106.5378 77° East 455 524 35,000  Level Denver Center
05:35PM 43.2728 -106.3503 77° East 453 521 35,000  Level Denver Center
05:37PM 43.3000 -106.1878 77° East 455 524 35,000  Level Denver Center
05:38PM 43.3325 -105.9989 77° East 455 524 35,000  Level Denver Center
05:39PM 43.3589 -105.8358 77° East 456 525 35,000  Level Denver Center
05:40PM 43.3858 -105.6756 77° East 453 521 35,000  Level Denver Center
05:41PM 43.4156 -105.4872 78° East 451 519 35,000  Level Denver Center
05:42PM 43.4417 -105.3256 77° East 451 519 35,000  Level Denver Center
05:43PM 43.4725 -105.1372 77° East 451 519 35,000  Level Denver Center
05:44PM 43.4975 -104.9767 78° East 450 518 35,000  Level Denver Center
05:45PM 43.5272 -104.7892 78° East 448 516 35,000  Level Denver Center
05:46PM 43.5525 -104.6275 78° East 448 516 35,000  Level Denver Center
05:47PM 43.5761 -104.4661 79° East 449 517 35,000  Level Denver Center
05:48PM 43.6050 -104.2778 78° East 449 517 35,000  Level Denver Center
05:49PM 43.6292 -104.1197 78° East 445 512 35,000  Level Denver Center
05:50PM 43.6578 -103.9319 78° East 445 512 35,000  Level Denver Center
05:51PM 43.6806 -103.7697 79° East 448 516 35,000  Level Denver Center
05:52PM 43.7089 -103.5822 78° East 448 516 35,000  Level Denver Center
05:53PM 43.7306 -103.4203 79° East 447 514 35,000  Level Denver Center
05:54PM 43.7586 -103.2319 78° East 448 516 35,000  Level Denver Center
05:55PM 43.7806 -103.0692 79° East 449 517 35,000  Level Denver Center
05:56PM 43.8022 -102.9069 79° East 450 518 35,000  Level Denver Center
05:57PM 43.8278 -102.7197 79° East 445 512 35,000  Level Denver Center
05:58PM 43.8494 -102.5575 79° East 447 514 35,000  Level Denver Center
05:59PM 43.8733 -102.3692 80° East 444 511 35,000  Level Denver Center
06:00PM 43.8914 -102.2106 81° East 447 514 35,000  Level Denver Center
06:01PM 43.9122 -102.0406 80° East 449 517 35,000  Level Denver Center
06:02PM 43.9367 -101.8367 80° East 448 516 35,000  Level Denver Center
06:03PM 43.9647 -101.6725 77° East 443 510 35,000  Level Denver Center
06:04PM 43.9850 -101.5039 80° East 445 512 35,000  Level Denver Center
06:05PM 44.0036 -101.3319 81° East 446 513 35,000  Level Minneapolis Center
06:07PM 44.0244 -101.1642 80° East 445 512 35,000  Level Minneapolis Center
06:08PM 44.0503 -100.9606 80° East 445 512 35,000  Level Minneapolis Center
06:09PM 44.0714 -100.7928 80° East 445 512 35,000  Level Minneapolis Center
06:10PM 44.0917 -100.6203 81° East 450 518 35,000  Level Minneapolis Center
06:11PM 44.1108 -100.4483 81° East 453 521 35,000  Level Minneapolis Center
06:12PM 44.1311 -100.2764 81° East 454 522 35,000  Level Minneapolis Center
06:13PM 44.1533 -100.0700 81° East 453 521 35,000  Level Minneapolis Center
06:14PM 44.1733 -99.8978 81° East 453 521 35,000  Level Minneapolis Center
06:15PM 44.1928 -99.7228 81° East 458 527 35,000  Level Minneapolis Center
06:16PM 44.2111 -99.5492 82° East 457 526 35,000  Level Minneapolis Center
06:17PM 44.2269 -99.4106 81° East 456 525 35,000  Level Minneapolis Center
06:18PM 44.2489 -99.2044 81° East 450 518 35,000  Level Minneapolis Center
06:19PM 44.2667 -99.0322 82° East 451 519 35,000  Level Minneapolis Center
06:20PM 44.2869 -98.8264 82° East 450 518 35,000  Level Minneapolis Center
06:21PM 44.3036 -98.6547 82° East 449 517 35,000  Level Minneapolis Center
06:22PM 44.3200 -98.4817 82° East 452 520 35,000  Level Minneapolis Center
06:23PM 44.3383 -98.2989 82° East 451 519 35,000  Level Minneapolis Center
06:24PM 44.3547 -98.1258 82° East 451 519 35,000  Level Minneapolis Center
06:25PM 44.3697 -97.9547 83° East 448 516 35,000  Level Minneapolis Center
06:26PM 44.3856 -97.7828 83° East 447 514 35,000  Level Minneapolis Center
06:27PM 44.4039 -97.5769 83° East 446 513 35,000  Level Minneapolis Center
06:28PM 44.4186 -97.4042 83° East 448 516 35,000  Level Minneapolis Center
06:29PM 44.4339 -97.2331 83° East 445 512 35,000  Level Minneapolis Center
06:30PM 44.4486 -97.0606 83° East 446 513 35,000  Level Minneapolis Center
06:31PM 44.4625 -96.8889 83° East 445 512 35,000  Level Minneapolis Center
06:32PM 44.4769 -96.7172 83° East 442 509 35,000  Level Minneapolis Center
06:34PM 44.4914 -96.5450 83° East 444 511 35,000  Level Minneapolis Center
06:35PM 44.5108 -96.3014 84° East 445 512 35,000  Level Minneapolis Center
06:36PM 44.5244 -96.1275 84° East 444 511 35,000  Level Minneapolis Center
06:37PM 44.5372 -95.9558 84° East 441 507 35,000  Level Minneapolis Center
06:38PM 44.5506 -95.7819 84° East 445 512 35,000  Level Minneapolis Center
06:39PM 44.5622 -95.6103 84° East 443 510 35,000 -780 Level Minneapolis Center
06:40PM 44.5736 -95.4406 85° East 439 505 33,500 -1,920 Descending Minneapolis Center
06:41PM 44.5858 -95.2694 84° East 440 506 31,100 -3,000 Descending Minneapolis Center
06:42PM 44.6014 -95.0608 84° East 447 514 27,300 -3,300 Descending Minneapolis Center
06:43PM 44.6117 -94.8881 85° East 447 514 24,300 -2,880 Descending Minneapolis Center
06:44PM 44.6231 -94.7239 84° East 432 497 21,400 -2,820 Descending Minneapolis Center
06:45PM 44.6328 -94.5636 85° East 413 475 18,500 -2,700 Descending Minneapolis Center
06:46PM 44.6372 -94.4047 88° East 406 467 15,900 -2,640 Descending Minneapolis Center
06:47PM 44.6444 -94.2531 86° East 392 451 13,100 -2,400 Descending Minneapolis Center
06:48PM 44.6761 -94.1153 72° East 373 429 11,000 -1,020 Descending Minneapolis Center
06:49PM 44.7028 -93.9483 77° East 368 423 11,000  Level Minneapolis Center
06:50PM 44.7431 -93.8150 67° East 371 427 11,000  Level Minneapolis Center
06:51PM 44.7822 -93.6817 67° East 369 425 11,000 -300 Level Minneapolis Center
06:52PM 44.8206 -93.5489 68° East 363 418 10,500 -540 Descending Minneapolis Center
06:53PM 44.8539 -93.4342 68° East 317 365 9,900 -1,140 Descending Minneapolis Center
06:54PM 44.8494 -93.3272 93° East 292 336 8,200 -1,680 Descending Minneapolis Center
06:55PM 44.7647 -93.3119 173° South 262 302 6,500 -1,380 Descending Minneapolis Center
06:56PM 44.6964 -93.3150 182° South 254 292 5,400 -960 Descending Minneapolis Center
06:58PM 44.6750 -93.2472 114° Southeast 215 247 4,400 -1,020 Descending Minneapolis Center
06:59PM 44.7189 -93.1983 38° Northeast 193 222 3,100 -960 Descending Minneapolis Center
07:00PM 44.7769 -93.2136 349° North 187 215 2,500 -720 Descending Minneapolis Center
07:01PM 44.8214 -93.2250 350° North 165 190 1,700 -780 Descending Minneapolis Center
07:03PM 44.8667 -93.2167 90° East  Level FlightAware Approximate